sensor_id;sensor_type;location;lat;lon;timestamp;temperature;humidity
18597;DHT22;9428;50.950;6.912;2023-05-03T00:02:38;9.30;99.90
18597;DHT22;9428;50.950;6.912;2023-05-03T00:05:29;9.20;99.90
18597;DHT22;9428;50.950;6.912;2023-05-03T00:08:16;9.30;99.90
18597;DHT22;9428;50.950;6.912;2023-05-03T00:11:03;9.50;99.90
18597;DHT22;9428;50.950;6.912;2023-05-03T00:13:52;9.80;99.90
18597;DHT22;9428;50.950;6.912;2023-05-03T00:16:40;9.80;99.90
18597;DHT22;9428;50.950;6.912;2023-05-03T00:19:27;9.30;99.90
18597;DHT22;9428;50.950;6.912;2023-05-03T00:22:17;9.00;99.90
18597;DHT22;9428;50.950;6.912;2023-05-03T00:25:07;9.30;99.90
18597;DHT22;9428;50.950;6.912;2023-05-03T00:27:54;9.30;99.90
18597;DHT22;9428;50.950;6.912;2023-05-03T00:30:43;9.10;99.90
18597;DHT22;9428;50.950;6.912;2023-05-03T00:33:30;9.90;99.90
18597;DHT22;9428;50.950;6.912;2023-05-03T00:36:18;9.30;99.90
18597;DHT22;9428;50.950;6.912;2023-05-03T00:39:05;9.40;99.90
18597;DHT22;9428;50.950;6.912;2023-05-03T00:41:55;9.50;99.90
18597;DHT22;9428;50.950;6.912;2023-05-03T00:44:43;9.20;99.90
18597;DHT22;9428;50.950;6.912;2023-05-03T00:47:31;9.30;99.90
18597;DHT22;9428;50.950;6.912;2023-05-03T00:50:19;9.40;99.90
18597;DHT22;9428;50.950;6.912;2023-05-03T00:53:06;9.30;99.90
18597;DHT22;9428;50.950;6.912;2023-05-03T00:55:54;9.30;99.90
18597;DHT22;9428;50.950;6.912;2023-05-03T00:58:41;9.30;99.90
18597;DHT22;9428;50.950;6.912;2023-05-03T01:01:28;9.40;99.90
18597;DHT22;9428;50.950;6.912;2023-05-03T01:04:19;9.30;99.90
18597;DHT22;9428;50.950;6.912;2023-05-03T01:07:13;9.20;99.90
18597;DHT22;9428;50.950;6.912;2023-05-03T01:10:08;9.30;99.90
18597;DHT22;9428;50.950;6.912;2023-05-03T01:13:04;8.80;99.90
18597;DHT22;9428;50.950;6.912;2023-05-03T01:15:59;9.00;99.90
18597;DHT22;9428;50.950;6.912;2023-05-03T01:18:50;8.90;99.90
18597;DHT22;9428;50.950;6.912;2023-05-03T01:21:45;8.70;99.90
18597;DHT22;9428;50.950;6.912;2023-05-03T01:24:35;8.70;99.90
18597;DHT22;9428;50.950;6.912;2023-05-03T01:27:25;9.00;99.90
18597;DHT22;9428;50.950;6.912;2023-05-03T01:30:13;8.50;99.90
18597;DHT22;9428;50.950;6.912;2023-05-03T01:33:04;8.60;99.90
18597;DHT22;9428;50.950;6.912;2023-05-03T01:35:59;8.70;99.90
18597;DHT22;9428;50.950;6.912;2023-05-03T01:38:48;8.30;99.90
18597;DHT22;9428;50.950;6.912;2023-05-03T01:41:37;8.30;99.90
18597;DHT22;9428;50.950;6.912;2023-05-03T01:44:28;8.70;99.90
18597;DHT22;9428;50.950;6.912;2023-05-03T01:47:16;8.30;99.90
18597;DHT22;9428;50.950;6.912;2023-05-03T01:50:04;8.10;99.90
18597;DHT22;9428;50.950;6.912;2023-05-03T01:52:51;8.00;99.90
18597;DHT22;9428;50.950;6.912;2023-05-03T01:55:38;8.40;99.90
18597;DHT22;9428;50.950;6.912;2023-05-03T01:58:25;8.10;99.90
18597;DHT22;9428;50.950;6.912;2023-05-03T02:01:14;8.40;99.90
18597;DHT22;9428;50.950;6.912;2023-05-03T02:04:01;8.10;99.90
18597;DHT22;9428;50.950;6.912;2023-05-03T02:06:48;9.30;99.90
18597;DHT22;9428;50.950;6.912;2023-05-03T02:09:36;8.10;99.90
18597;DHT22;9428;50.950;6.912;2023-05-03T02:12:23;7.80;99.90
18597;DHT22;9428;50.950;6.912;2023-05-03T02:15:11;7.90;99.90
18597;DHT22;9428;50.950;6.912;2023-05-03T02:18:00;8.10;99.90
18597;DHT22;9428;50.950;6.912;2023-05-03T02:20:48;8.50;99.90
18597;DHT22;9428;50.950;6.912;2023-05-03T02:23:35;8.20;99.90
18597;DHT22;9428;50.950;6.912;2023-05-03T02:26:22;8.10;99.90
18597;DHT22;9428;50.950;6.912;2023-05-03T02:29:09;8.90;99.90
18597;DHT22;9428;50.950;6.912;2023-05-03T02:31:57;8.10;99.90
18597;DHT22;9428;50.950;6.912;2023-05-03T02:34:46;8.00;99.90
18597;DHT22;9428;50.950;6.912;2023-05-03T02:37:34;8.10;99.90
18597;DHT22;9428;50.950;6.912;2023-05-03T02:40:21;8.50;99.90
18597;DHT22;9428;50.950;6.912;2023-05-03T02:43:08;7.90;99.90
18597;DHT22;9428;50.950;6.912;2023-05-03T02:45:55;7.90;99.90
18597;DHT22;9428;50.950;6.912;2023-05-03T02:48:43;8.00;99.90
18597;DHT22;9428;50.950;6.912;2023-05-03T02:51:31;8.00;99.90
18597;DHT22;9428;50.950;6.912;2023-05-03T02:54:18;7.60;99.90
18597;DHT22;9428;50.950;6.912;2023-05-03T02:57:06;8.10;99.90
18597;DHT22;9428;50.950;6.912;2023-05-03T02:59:53;8.20;99.90
18597;DHT22;9428;50.950;6.912;2023-05-03T03:02:40;8.10;99.90
18597;DHT22;9428;50.950;6.912;2023-05-03T03:05:27;7.80;99.90
18597;DHT22;9428;50.950;6.912;2023-05-03T03:08:17;8.00;99.90
18597;DHT22;9428;50.950;6.912;2023-05-03T03:11:04;8.10;99.90
18597;DHT22;9428;50.950;6.912;2023-05-03T03:13:52;7.80;99.90
18597;DHT22;9428;50.950;6.912;2023-05-03T03:16:40;7.60;99.90
18597;DHT22;9428;50.950;6.912;2023-05-03T03:19:27;8.30;99.90
18597;DHT22;9428;50.950;6.912;2023-05-03T03:22:15;8.20;99.90
18597;DHT22;9428;50.950;6.912;2023-05-03T03:25:04;7.70;99.90
18597;DHT22;9428;50.950;6.912;2023-05-03T03:27:51;7.80;99.90
18597;DHT22;9428;50.950;6.912;2023-05-03T03:30:38;7.70;99.90
18597;DHT22;9428;50.950;6.912;2023-05-03T03:33:25;7.70;99.90
18597;DHT22;9428;50.950;6.912;2023-05-03T03:36:13;7.80;99.90
18597;DHT22;9428;50.950;6.912;2023-05-03T03:39:00;7.80;99.90
18597;DHT22;9428;50.950;6.912;2023-05-03T03:41:48;7.70;99.90
18597;DHT22;9428;50.950;6.912;2023-05-03T03:44:36;7.50;99.90
18597;DHT22;9428;50.950;6.912;2023-05-03T03:47:23;8.10;99.90
18597;DHT22;9428;50.950;6.912;2023-05-03T03:50:10;8.10;99.90
18597;DHT22;9428;50.950;6.912;2023-05-03T03:52:57;7.80;99.90
18597;DHT22;9428;50.950;6.912;2023-05-03T03:55:45;7.90;99.90
18597;DHT22;9428;50.950;6.912;2023-05-03T03:58:34;7.40;99.90
18597;DHT22;9428;50.950;6.912;2023-05-03T04:01:21;7.20;99.90
18597;DHT22;9428;50.950;6.912;2023-05-03T04:04:09;7.60;99.90
18597;DHT22;9428;50.950;6.912;2023-05-03T04:06:56;7.60;99.90
18597;DHT22;9428;50.950;6.912;2023-05-03T04:09:43;7.40;99.90
18597;DHT22;9428;50.950;6.912;2023-05-03T04:12:31;6.40;99.90
18597;DHT22;9428;50.950;6.912;2023-05-03T04:15:20;7.30;99.90
18597;DHT22;9428;50.950;6.912;2023-05-03T04:18:07;7.40;99.90
18597;DHT22;9428;50.950;6.912;2023-05-03T04:20:54;7.50;99.90
18597;DHT22;9428;50.950;6.912;2023-05-03T04:23:41;7.70;99.90
18597;DHT22;9428;50.950;6.912;2023-05-03T04:26:29;8.20;99.90
18597;DHT22;9428;50.950;6.912;2023-05-03T04:29:16;8.10;99.90
18597;DHT22;9428;50.950;6.912;2023-05-03T04:32:06;7.80;99.90
18597;DHT22;9428;50.950;6.912;2023-05-03T04:34:53;7.90;99.90
18597;DHT22;9428;50.950;6.912;2023-05-03T04:37:40;7.80;99.90
18597;DHT22;9428;50.950;6.912;2023-05-03T04:40:28;7.80;99.90
18597;DHT22;9428;50.950;6.912;2023-05-03T04:43:15;8.00;99.90
18597;DHT22;9428;50.950;6.912;2023-05-03T04:46:03;8.50;99.90
18597;DHT22;9428;50.950;6.912;2023-05-03T04:48:51;8.70;99.90
18597;DHT22;9428;50.950;6.912;2023-05-03T04:51:39;8.30;99.90
18597;DHT22;9428;50.950;6.912;2023-05-03T04:54:26;8.20;99.90
18597;DHT22;9428;50.950;6.912;2023-05-03T04:57:13;8.20;99.90
18597;DHT22;9428;50.950;6.912;2023-05-03T05:00:00;8.30;99.90
18597;DHT22;9428;50.950;6.912;2023-05-03T05:02:49;8.20;99.90
18597;DHT22;9428;50.950;6.912;2023-05-03T05:05:38;8.90;99.90
18597;DHT22;9428;50.950;6.912;2023-05-03T05:08:25;8.20;99.90
18597;DHT22;9428;50.950;6.912;2023-05-03T05:11:12;8.20;99.90
18597;DHT22;9428;50.950;6.912;2023-05-03T05:14:00;8.60;99.90
18597;DHT22;9428;50.950;6.912;2023-05-03T05:16:47;8.20;99.90
18597;DHT22;9428;50.950;6.912;2023-05-03T05:19:34;8.10;99.90
18597;DHT22;9428;50.950;6.912;2023-05-03T05:22:23;8.30;99.90
18597;DHT22;9428;50.950;6.912;2023-05-03T05:25:11;8.20;99.90
18597;DHT22;9428;50.950;6.912;2023-05-03T05:27:58;8.10;99.90
18597;DHT22;9428;50.950;6.912;2023-05-03T05:30:45;8.00;99.90
18597;DHT22;9428;50.950;6.912;2023-05-03T05:33:32;8.40;99.90
18597;DHT22;9428;50.950;6.912;2023-05-03T05:36:19;7.90;99.90
18597;DHT22;9428;50.950;6.912;2023-05-03T05:39:08;8.60;99.90
18597;DHT22;9428;50.950;6.912;2023-05-03T05:41:55;8.00;99.90
18597;DHT22;9428;50.950;6.912;2023-05-03T05:44:42;8.00;99.90
18597;DHT22;9428;50.950;6.912;2023-05-03T05:47:30;8.30;99.90
18597;DHT22;9428;50.950;6.912;2023-05-03T05:50:17;8.10;99.90
18597;DHT22;9428;50.950;6.912;2023-05-03T05:53:04;8.40;99.90
18597;DHT22;9428;50.950;6.912;2023-05-03T05:55:55;8.50;99.90
18597;DHT22;9428;50.950;6.912;2023-05-03T05:58:42;8.40;99.90
18597;DHT22;9428;50.950;6.912;2023-05-03T06:01:29;8.90;99.90
18597;DHT22;9428;50.950;6.912;2023-05-03T06:04:18;8.40;99.90
18597;DHT22;9428;50.950;6.912;2023-05-03T06:07:05;8.50;99.90
18597;DHT22;9428;50.950;6.912;2023-05-03T06:09:52;8.50;99.90
18597;DHT22;9428;50.950;6.912;2023-05-03T06:12:41;8.60;99.90
18597;DHT22;9428;50.950;6.912;2023-05-03T06:15:28;8.60;99.90
18597;DHT22;9428;50.950;6.912;2023-05-03T06:18:16;8.40;99.90
18597;DHT22;9428;50.950;6.912;2023-05-03T06:21:03;8.60;99.90
18597;DHT22;9428;50.950;6.912;2023-05-03T06:23:51;8.70;99.90
18597;DHT22;9428;50.950;6.912;2023-05-03T06:26:38;8.70;99.90
18597;DHT22;9428;50.950;6.912;2023-05-03T06:29:26;8.80;99.90
18597;DHT22;9428;50.950;6.912;2023-05-03T06:32:14;8.80;99.90
18597;DHT22;9428;50.950;6.912;2023-05-03T06:35:01;9.00;99.90
18597;DHT22;9428;50.950;6.912;2023-05-03T06:37:48;9.90;99.90
18597;DHT22;9428;50.950;6.912;2023-05-03T06:40:36;9.20;99.90
18597;DHT22;9428;50.950;6.912;2023-05-03T06:43:26;9.30;99.90
18597;DHT22;9428;50.950;6.912;2023-05-03T06:46:14;9.60;99.90
18597;DHT22;9428;50.950;6.912;2023-05-03T06:49:01;9.80;99.90
18597;DHT22;9428;50.950;6.912;2023-05-03T06:51:49;9.80;99.90
18597;DHT22;9428;50.950;6.912;2023-05-03T06:54:36;9.50;99.90
18597;DHT22;9428;50.950;6.912;2023-05-03T06:57:23;9.70;99.90
18597;DHT22;9428;50.950;6.912;2023-05-03T07:00:11;9.60;99.90
18597;DHT22;9428;50.950;6.912;2023-05-03T07:03:00;9.60;99.90
18597;DHT22;9428;50.950;6.912;2023-05-03T07:05:47;9.60;99.90
18597;DHT22;9428;50.950;6.912;2023-05-03T07:08:34;10.30;99.90
18597;DHT22;9428;50.950;6.912;2023-05-03T07:11:22;9.70;99.90
18597;DHT22;9428;50.950;6.912;2023-05-03T07:14:09;9.60;99.90
18597;DHT22;9428;50.950;6.912;2023-05-03T07:16:56;9.70;99.90
18597;DHT22;9428;50.950;6.912;2023-05-03T07:19:45;9.80;99.90
18597;DHT22;9428;50.950;6.912;2023-05-03T07:22:33;9.90;99.90
18597;DHT22;9428;50.950;6.912;2023-05-03T07:25:20;10.10;99.90
18597;DHT22;9428;50.950;6.912;2023-05-03T07:28:07;10.00;99.90
18597;DHT22;9428;50.950;6.912;2023-05-03T07:30:55;10.10;99.90
18597;DHT22;9428;50.950;6.912;2023-05-03T07:33:42;10.20;99.90
18597;DHT22;9428;50.950;6.912;2023-05-03T07:36:31;10.20;99.90
18597;DHT22;9428;50.950;6.912;2023-05-03T07:39:18;10.30;99.90
18597;DHT22;9428;50.950;6.912;2023-05-03T07:42:05;10.90;99.90
18597;DHT22;9428;50.950;6.912;2023-05-03T07:44:53;10.50;99.90
18597;DHT22;9428;50.950;6.912;2023-05-03T07:47:40;10.70;99.90
18597;DHT22;9428;50.950;6.912;2023-05-03T07:50:27;10.30;99.90
18597;DHT22;9428;50.950;6.912;2023-05-03T07:53:16;10.30;99.90
18597;DHT22;9428;50.950;6.912;2023-05-03T07:56:03;10.80;99.90
18597;DHT22;9428;50.950;6.912;2023-05-03T07:58:51;10.70;99.90
18597;DHT22;9428;50.950;6.912;2023-05-03T08:01:38;10.80;99.90
18597;DHT22;9428;50.950;6.912;2023-05-03T08:04:25;10.80;99.90
18597;DHT22;9428;50.950;6.912;2023-05-03T08:07:13;10.80;99.90
18597;DHT22;9428;50.950;6.912;2023-05-03T08:10:01;11.20;99.90
18597;DHT22;9428;50.950;6.912;2023-05-03T08:12:49;11.10;99.90
18597;DHT22;9428;50.950;6.912;2023-05-03T08:15:36;11.90;99.90
18597;DHT22;9428;50.950;6.912;2023-05-03T08:18:25;11.00;99.90
18597;DHT22;9428;50.950;6.912;2023-05-03T08:21:12;11.20;99.90
18597;DHT22;9428;50.950;6.912;2023-05-03T08:24:01;11.40;99.90
18597;DHT22;9428;50.950;6.912;2023-05-03T08:26:52;11.30;99.90
18597;DHT22;9428;50.950;6.912;2023-05-03T08:29:40;11.40;99.90
18597;DHT22;9428;50.950;6.912;2023-05-03T08:32:27;11.40;99.90
18597;DHT22;9428;50.950;6.912;2023-05-03T08:35:15;11.60;99.90
18597;DHT22;9428;50.950;6.912;2023-05-03T08:38:03;11.60;99.90
18597;DHT22;9428;50.950;6.912;2023-05-03T08:40:56;12.10;99.90
18597;DHT22;9428;50.950;6.912;2023-05-03T08:43:51;11.70;99.90
18597;DHT22;9428;50.950;6.912;2023-05-03T08:46:38;11.50;99.90
18597;DHT22;9428;50.950;6.912;2023-05-03T08:49:25;11.60;99.90
18597;DHT22;9428;50.950;6.912;2023-05-03T08:52:14;11.40;99.90
18597;DHT22;9428;50.950;6.912;2023-05-03T08:55:03;11.40;99.90
18597;DHT22;9428;50.950;6.912;2023-05-03T08:57:52;11.30;99.90
18597;DHT22;9428;50.950;6.912;2023-05-03T09:00:41;11.40;99.90
18597;DHT22;9428;50.950;6.912;2023-05-03T09:03:29;11.80;99.90
18597;DHT22;9428;50.950;6.912;2023-05-03T09:06:20;11.30;99.90
18597;DHT22;9428;50.950;6.912;2023-05-03T09:09:10;11.70;99.90
18597;DHT22;9428;50.950;6.912;2023-05-03T09:11:59;12.30;99.90
18597;DHT22;9428;50.950;6.912;2023-05-03T09:14:46;11.50;99.90
18597;DHT22;9428;50.950;6.912;2023-05-03T09:17:36;11.70;99.90
18597;DHT22;9428;50.950;6.912;2023-05-03T09:20:33;12.30;99.90
18597;DHT22;9428;50.950;6.912;2023-05-03T09:23:28;12.10;99.90
18597;DHT22;9428;50.950;6.912;2023-05-03T09:26:27;12.00;99.90
18597;DHT22;9428;50.950;6.912;2023-05-03T09:29:27;12.20;99.90
18597;DHT22;9428;50.950;6.912;2023-05-03T09:32:16;12.10;99.90
18597;DHT22;9428;50.950;6.912;2023-05-03T09:35:09;12.10;99.90
18597;DHT22;9428;50.950;6.912;2023-05-03T09:37:58;12.00;99.90
18597;DHT22;9428;50.950;6.912;2023-05-03T09:40:47;12.00;99.90
18597;DHT22;9428;50.950;6.912;2023-05-03T09:43:34;12.60;99.90
18597;DHT22;9428;50.950;6.912;2023-05-03T09:46:22;12.90;99.90
18597;DHT22;9428;50.950;6.912;2023-05-03T09:49:10;12.50;99.90
18597;DHT22;9428;50.950;6.912;2023-05-03T09:52:00;12.70;99.90
18597;DHT22;9428;50.950;6.912;2023-05-03T09:54:47;12.20;99.90
18597;DHT22;9428;50.950;6.912;2023-05-03T09:57:36;12.50;99.90
18597;DHT22;9428;50.950;6.912;2023-05-03T10:00:24;12.80;99.90
18597;DHT22;9428;50.950;6.912;2023-05-03T10:03:14;12.20;99.90
18597;DHT22;9428;50.950;6.912;2023-05-03T10:06:07;12.20;99.90
18597;DHT22;9428;50.950;6.912;2023-05-03T10:09:02;12.20;99.90
18597;DHT22;9428;50.950;6.912;2023-05-03T10:11:52;12.40;99.90
18597;DHT22;9428;50.950;6.912;2023-05-03T10:14:40;12.50;99.90
18597;DHT22;9428;50.950;6.912;2023-05-03T10:17:31;12.90;99.90
18597;DHT22;9428;50.950;6.912;2023-05-03T10:20:27;12.40;99.90
18597;DHT22;9428;50.950;6.912;2023-05-03T10:23:17;12.70;99.90
18597;DHT22;9428;50.950;6.912;2023-05-03T10:26:15;12.80;99.90
18597;DHT22;9428;50.950;6.912;2023-05-03T10:29:02;13.20;99.90
18597;DHT22;9428;50.950;6.912;2023-05-03T10:31:52;13.20;99.90
18597;DHT22;9428;50.950;6.912;2023-05-03T10:34:39;13.10;99.90
18597;DHT22;9428;50.950;6.912;2023-05-03T10:37:27;12.80;99.90
18597;DHT22;9428;50.950;6.912;2023-05-03T10:40:15;12.70;99.90
18597;DHT22;9428;50.950;6.912;2023-05-03T10:43:04;12.60;99.90
18597;DHT22;9428;50.950;6.912;2023-05-03T10:45:52;12.90;99.90
18597;DHT22;9428;50.950;6.912;2023-05-03T10:48:39;13.30;99.90
18597;DHT22;9428;50.950;6.912;2023-05-03T10:51:31;13.70;99.90
18597;DHT22;9428;50.950;6.912;2023-05-03T10:54:21;12.90;99.90
18597;DHT22;9428;50.950;6.912;2023-05-03T10:57:09;13.00;99.90
18597;DHT22;9428;50.950;6.912;2023-05-03T10:59:59;13.00;99.90
18597;DHT22;9428;50.950;6.912;2023-05-03T11:09:12;13.30;99.90
18597;DHT22;9428;50.950;6.912;2023-05-03T11:12:03;13.50;99.90
18597;DHT22;9428;50.950;6.912;2023-05-03T11:14:51;13.30;99.90
18597;DHT22;9428;50.950;6.912;2023-05-03T11:17:39;13.20;99.90
18597;DHT22;9428;50.950;6.912;2023-05-03T11:20:27;13.10;99.90
18597;DHT22;9428;50.950;6.912;2023-05-03T11:23:14;13.30;99.90
18597;DHT22;9428;50.950;6.912;2023-05-03T11:26:05;13.40;99.90
18597;DHT22;9428;50.950;6.912;2023-05-03T11:28:52;13.60;99.90
18597;DHT22;9428;50.950;6.912;2023-05-03T11:31:40;13.60;99.90
18597;DHT22;9428;50.950;6.912;2023-05-03T11:34:30;13.40;99.90
18597;DHT22;9428;50.950;6.912;2023-05-03T11:37:17;13.50;99.90
18597;DHT22;9428;50.950;6.912;2023-05-03T11:40:06;13.40;99.90
18597;DHT22;9428;50.950;6.912;2023-05-03T11:42:56;13.30;99.90
18597;DHT22;9428;50.950;6.912;2023-05-03T11:45:45;13.40;99.90
18597;DHT22;9428;50.950;6.912;2023-05-03T11:48:33;14.00;99.90
18597;DHT22;9428;50.950;6.912;2023-05-03T11:51:22;14.00;99.90
18597;DHT22;9428;50.950;6.912;2023-05-03T11:54:10;13.90;99.70
18597;DHT22;9428;50.950;6.912;2023-05-03T11:56:58;14.00;99.90
18597;DHT22;9428;50.950;6.912;2023-05-03T11:59:46;14.00;99.70
18597;DHT22;9428;50.950;6.912;2023-05-03T12:02:35;13.80;99.50
18597;DHT22;9428;50.950;6.912;2023-05-03T12:05:22;14.10;99.90
18597;DHT22;9428;50.950;6.912;2023-05-03T12:08:12;14.70;99.90
18597;DHT22;9428;50.950;6.912;2023-05-03T12:11:00;14.30;99.50
18597;DHT22;9428;50.950;6.912;2023-05-03T12:13:55;14.40;99.40
18597;DHT22;9428;50.950;6.912;2023-05-03T12:16:48;14.40;98.30
18597;DHT22;9428;50.950;6.912;2023-05-03T12:19:36;14.40;98.90
18597;DHT22;9428;50.950;6.912;2023-05-03T12:22:23;14.40;97.70
18597;DHT22;9428;50.950;6.912;2023-05-03T12:25:13;14.20;97.40
18597;DHT22;9428;50.950;6.912;2023-05-03T12:28:02;14.10;98.40
18597;DHT22;9428;50.950;6.912;2023-05-03T12:30:50;14.60;99.70
18597;DHT22;9428;50.950;6.912;2023-05-03T12:33:37;14.30;98.00
18597;DHT22;9428;50.950;6.912;2023-05-03T12:36:25;14.50;96.90
18597;DHT22;9428;50.950;6.912;2023-05-03T12:39:12;14.40;97.60
18597;DHT22;9428;50.950;6.912;2023-05-03T12:42:01;14.70;97.00
18597;DHT22;9428;50.950;6.912;2023-05-03T12:44:49;15.20;96.40
18597;DHT22;9428;50.950;6.912;2023-05-03T12:47:37;14.50;98.30
18597;DHT22;9428;50.950;6.912;2023-05-03T12:50:24;14.30;97.60
18597;DHT22;9428;50.950;6.912;2023-05-03T12:53:11;15.00;99.80
18597;DHT22;9428;50.950;6.912;2023-05-03T12:55:58;14.80;96.80
18597;DHT22;9428;50.950;6.912;2023-05-03T12:58:47;14.70;95.60
18597;DHT22;9428;50.950;6.912;2023-05-03T13:01:34;14.70;97.30
18597;DHT22;9428;50.950;6.912;2023-05-03T13:04:22;14.50;97.10
18597;DHT22;9428;50.950;6.912;2023-05-03T13:07:10;14.50;95.80
18597;DHT22;9428;50.950;6.912;2023-05-03T13:10:01;14.30;96.60
18597;DHT22;9428;50.950;6.912;2023-05-03T13:12:49;14.90;95.90
18597;DHT22;9428;50.950;6.912;2023-05-03T13:15:38;15.00;94.20
18597;DHT22;9428;50.950;6.912;2023-05-03T13:18:26;14.80;94.90
18597;DHT22;9428;50.950;6.912;2023-05-03T13:21:14;14.90;94.40
18597;DHT22;9428;50.950;6.912;2023-05-03T13:24:01;15.10;93.90
18597;DHT22;9428;50.950;6.912;2023-05-03T13:26:49;14.90;94.40
18597;DHT22;9428;50.950;6.912;2023-05-03T13:29:36;15.40;94.00
18597;DHT22;9428;50.950;6.912;2023-05-03T13:32:25;15.50;94.20
18597;DHT22;9428;50.950;6.912;2023-05-03T13:35:12;15.40;94.20
18597;DHT22;9428;50.950;6.912;2023-05-03T13:37:59;15.00;94.30
18597;DHT22;9428;50.950;6.912;2023-05-03T13:40:47;15.40;94.20
18597;DHT22;9428;50.950;6.912;2023-05-03T13:43:34;15.20;93.90
18597;DHT22;9428;50.950;6.912;2023-05-03T13:46:21;15.30;93.30
18597;DHT22;9428;50.950;6.912;2023-05-03T13:49:10;15.30;92.70
18597;DHT22;9428;50.950;6.912;2023-05-03T13:51:57;15.10;93.00
18597;DHT22;9428;50.950;6.912;2023-05-03T13:54:44;15.30;93.40
18597;DHT22;9428;50.950;6.912;2023-05-03T13:57:31;15.70;93.50
18597;DHT22;9428;50.950;6.912;2023-05-03T14:00:19;15.40;93.30
18597;DHT22;9428;50.950;6.912;2023-05-03T14:03:07;15.70;92.90
18597;DHT22;9428;50.950;6.912;2023-05-03T14:05:55;15.60;92.60
18597;DHT22;9428;50.950;6.912;2023-05-03T14:08:42;15.40;93.00
18597;DHT22;9428;50.950;6.912;2023-05-03T14:11:30;15.40;92.50
18597;DHT22;9428;50.950;6.912;2023-05-03T14:14:17;15.50;92.70
18597;DHT22;9428;50.950;6.912;2023-05-03T14:17:04;15.80;92.80
18597;DHT22;9428;50.950;6.912;2023-05-03T14:19:53;15.80;91.90
18597;DHT22;9428;50.950;6.912;2023-05-03T14:22:41;15.80;91.80
18597;DHT22;9428;50.950;6.912;2023-05-03T14:25:29;15.60;92.00
18597;DHT22;9428;50.950;6.912;2023-05-03T14:28:16;15.80;90.70
18597;DHT22;9428;50.950;6.912;2023-05-03T14:31:03;15.90;90.30
18597;DHT22;9428;50.950;6.912;2023-05-03T14:33:51;16.10;90.80
18597;DHT22;9428;50.950;6.912;2023-05-03T14:36:38;15.80;90.40
18597;DHT22;9428;50.950;6.912;2023-05-03T14:39:29;15.70;91.20
18597;DHT22;9428;50.950;6.912;2023-05-03T14:42:17;15.80;90.40
18597;DHT22;9428;50.950;6.912;2023-05-03T14:45:04;15.90;90.00
18597;DHT22;9428;50.950;6.912;2023-05-03T14:47:52;16.00;91.20
18597;DHT22;9428;50.950;6.912;2023-05-03T14:50:40;15.80;91.20
18597;DHT22;9428;50.950;6.912;2023-05-03T14:53:27;15.80;91.50
18597;DHT22;9428;50.950;6.912;2023-05-03T14:56:16;16.00;91.40
18597;DHT22;9428;50.950;6.912;2023-05-03T14:59:03;15.90;91.40
18597;DHT22;9428;50.950;6.912;2023-05-03T15:01:51;16.10;90.70
18597;DHT22;9428;50.950;6.912;2023-05-03T15:04:39;15.80;91.00
18597;DHT22;9428;50.950;6.912;2023-05-03T15:07:26;15.60;91.70
18597;DHT22;9428;50.950;6.912;2023-05-03T15:10:14;15.70;91.60
18597;DHT22;9428;50.950;6.912;2023-05-03T15:13:02;16.10;90.70
18597;DHT22;9428;50.950;6.912;2023-05-03T15:15:49;16.20;90.00
18597;DHT22;9428;50.950;6.912;2023-05-03T15:18:37;16.00;89.40
18597;DHT22;9428;50.950;6.912;2023-05-03T15:21:24;16.00;90.00
18597;DHT22;9428;50.950;6.912;2023-05-03T15:24:11;15.70;90.90
18597;DHT22;9428;50.950;6.912;2023-05-03T15:26:59;15.90;90.40
18597;DHT22;9428;50.950;6.912;2023-05-03T15:29:50;16.40;90.00
18597;DHT22;9428;50.950;6.912;2023-05-03T15:32:37;16.40;88.90
18597;DHT22;9428;50.950;6.912;2023-05-03T15:35:25;16.70;88.90
18597;DHT22;9428;50.950;6.912;2023-05-03T15:38:12;16.00;90.50
18597;DHT22;9428;50.950;6.912;2023-05-03T15:40:59;15.90;89.60
18597;DHT22;9428;50.950;6.912;2023-05-03T15:43:47;16.20;89.10
18597;DHT22;9428;50.950;6.912;2023-05-03T15:46:35;16.40;87.00
18597;DHT22;9428;50.950;6.912;2023-05-03T15:49:23;16.10;86.90
18597;DHT22;9428;50.950;6.912;2023-05-03T15:52:11;16.10;87.70
18597;DHT22;9428;50.950;6.912;2023-05-03T15:54:58;15.90;87.60
18597;DHT22;9428;50.950;6.912;2023-05-03T15:57:45;16.10;89.20
18597;DHT22;9428;50.950;6.912;2023-05-03T16:00:33;16.20;87.40
18597;DHT22;9428;50.950;6.912;2023-05-03T16:03:21;16.10;88.50
18597;DHT22;9428;50.950;6.912;2023-05-03T16:06:09;16.00;91.90
18597;DHT22;9428;50.950;6.912;2023-05-03T16:08:56;16.00;89.50
18597;DHT22;9428;50.950;6.912;2023-05-03T16:11:43;15.80;90.40
18597;DHT22;9428;50.950;6.912;2023-05-03T16:14:30;16.20;88.80
18597;DHT22;9428;50.950;6.912;2023-05-03T16:17:17;16.40;87.00
18597;DHT22;9428;50.950;6.912;2023-05-03T16:20:07;16.50;86.80
18597;DHT22;9428;50.950;6.912;2023-05-03T16:22:55;16.40;86.50
18597;DHT22;9428;50.950;6.912;2023-05-03T16:25:42;16.40;87.50
18597;DHT22;9428;50.950;6.912;2023-05-03T16:28:30;16.30;90.10
18597;DHT22;9428;50.950;6.912;2023-05-03T16:31:17;16.10;88.60
18597;DHT22;9428;50.950;6.912;2023-05-03T16:34:04;15.90;90.90
18597;DHT22;9428;50.950;6.912;2023-05-03T16:36:53;16.00;91.20
18597;DHT22;9428;50.950;6.912;2023-05-03T16:39:40;16.10;90.30
18597;DHT22;9428;50.950;6.912;2023-05-03T16:42:27;16.10;90.30
18597;DHT22;9428;50.950;6.912;2023-05-03T16:45:15;15.90;90.30
18597;DHT22;9428;50.950;6.912;2023-05-03T16:48:04;15.90;91.30
18597;DHT22;9428;50.950;6.912;2023-05-03T16:50:52;15.90;90.90
18597;DHT22;9428;50.950;6.912;2023-05-03T16:53:40;15.90;91.10
18597;DHT22;9428;50.950;6.912;2023-05-03T16:56:27;15.80;91.40
18597;DHT22;9428;50.950;6.912;2023-05-03T16:59:15;15.80;90.50
18597;DHT22;9428;50.950;6.912;2023-05-03T17:02:02;15.70;90.80
18597;DHT22;9428;50.950;6.912;2023-05-03T17:04:50;15.60;91.30
18597;DHT22;9428;50.950;6.912;2023-05-03T17:07:37;15.60;91.00
18597;DHT22;9428;50.950;6.912;2023-05-03T17:10:27;15.70;91.50
18597;DHT22;9428;50.950;6.912;2023-05-03T17:13:14;15.80;93.30
18597;DHT22;9428;50.950;6.912;2023-05-03T17:16:05;15.80;92.60
18597;DHT22;9428;50.950;6.912;2023-05-03T17:18:54;15.90;92.60
18597;DHT22;9428;50.950;6.912;2023-05-03T17:21:42;16.30;95.50
18597;DHT22;9428;50.950;6.912;2023-05-03T17:24:29;16.40;97.20
18597;DHT22;9428;50.950;6.912;2023-05-03T17:27:19;16.20;98.30
18597;DHT22;9428;50.950;6.912;2023-05-03T17:30:09;16.20;99.00
18597;DHT22;9428;50.950;6.912;2023-05-03T17:32:57;16.50;98.40
18597;DHT22;9428;50.950;6.912;2023-05-03T17:35:44;16.40;98.80
18597;DHT22;9428;50.950;6.912;2023-05-03T17:38:32;16.40;98.60
18597;DHT22;9428;50.950;6.912;2023-05-03T17:41:19;16.50;98.80
18597;DHT22;9428;50.950;6.912;2023-05-03T17:44:08;16.30;99.30
18597;DHT22;9428;50.950;6.912;2023-05-03T17:46:55;16.30;99.90
18597;DHT22;9428;50.950;6.912;2023-05-03T17:49:42;16.40;99.90
18597;DHT22;9428;50.950;6.912;2023-05-03T17:52:29;16.30;99.90
18597;DHT22;9428;50.950;6.912;2023-05-03T17:55:17;16.20;99.90
18597;DHT22;9428;50.950;6.912;2023-05-03T17:58:04;16.20;99.90
18597;DHT22;9428;50.950;6.912;2023-05-03T18:00:53;16.20;99.90
18597;DHT22;9428;50.950;6.912;2023-05-03T18:03:40;16.30;99.90
18597;DHT22;9428;50.950;6.912;2023-05-03T18:06:27;16.10;99.90
18597;DHT22;9428;50.950;6.912;2023-05-03T18:09:14;16.00;99.90
18597;DHT22;9428;50.950;6.912;2023-05-03T18:12:02;16.30;99.90
18597;DHT22;9428;50.950;6.912;2023-05-03T18:14:49;16.10;99.90